Accueil
METAR-TAF:

METAR-TAF

Aéroports :

Aéroport de Florence-Peretola

Florence, Italie

latitude: 43-48N, longitude: 011-12E, altitude: 40 m

Observation

Le bulletin a été fait il y a 10 minutes, à 01:20 UTC
Vent 5 kt de sud/sud-ouest
Température 16°C
Humidité 94%
Pression 1013 hPa
Visibilité 10 km ou plus
Quelques nuages à une hauteur de 8000 ft

METAR: LIRQ 210120Z 20005KT 9999 FEW080 16/15 Q1013

Heure: 03:30 (01:30 UTC)

Prévision

Le bulletin a été fait il y a 2 heures et 30 minutes, à 23:00 UTC
Prévision valable du 21 à 00 UTC au 21 à 24 UTC
Vent 6 kt de nord-est
Visibilité 10 km ou plus
Nuages épars à une hauteur de 3000 ft
Temporairement
du 21 à 10 UTC au 21 à 18 UTC
Visibilité: 4000 m
orage, pluie
Temporairement
du 21 à 20 UTC au 21 à 24 UTC
Visibilité: 4000 m
orage, pluie

TAF: LIRQ 202300Z 2100/2124 04006KT 9999 SCT030 TEMPO 2110/2118 4000 TSRA TEMPO 2120/2124 4000 TSRA

Observations et prévisions météorologiques de plus de 4000 aéroports (messages METAR et TAF).

Les stations disponibles sont représentées par des disques jaunes et rouges sur la carte.

Passer la souris dessus pour voir le nom de la station.

Cliquer dessus pour voir les observations et prévisions météorologiques.

Pour changer de carte: cliquez sur les boutons verts avec une croix noire pour zoomer, sur le bouton vert avec un tiret pour effectuer un zoom arrière, ou sur les flèches vertes pour les cartes adjacentes.


METAR-TAF: